sensor_id;sensor_type;location;lat;lon;timestamp;P1;durP1;ratioP1;P2;durP2;ratioP2
14789;SDS011;7486;51.010;10.366;2023-08-08T00:02:18;2.67;;;1.80;;
14789;SDS011;7486;51.010;10.366;2023-08-08T00:05:03;3.47;;;2.00;;
14789;SDS011;7486;51.010;10.366;2023-08-08T00:07:49;2.05;;;1.80;;
14789;SDS011;7486;51.010;10.366;2023-08-08T00:10:34;3.78;;;2.25;;
14789;SDS011;7486;51.010;10.366;2023-08-08T00:13:20;4.10;;;1.80;;
14789;SDS011;7486;51.010;10.366;2023-08-08T00:16:05;2.53;;;1.92;;
14789;SDS011;7486;51.010;10.366;2023-08-08T00:18:51;2.10;;;1.90;;
14789;SDS011;7486;51.010;10.366;2023-08-08T00:21:36;4.80;;;2.03;;
14789;SDS011;7486;51.010;10.366;2023-08-08T00:24:22;3.60;;;1.85;;
14789;SDS011;7486;51.010;10.366;2023-08-08T00:27:07;2.35;;;1.95;;
14789;SDS011;7486;51.010;10.366;2023-08-08T00:29:53;3.25;;;2.33;;
14789;SDS011;7486;51.010;10.366;2023-08-08T00:32:38;5.18;;;2.33;;
14789;SDS011;7486;51.010;10.366;2023-08-08T00:35:24;4.50;;;1.90;;
14789;SDS011;7486;51.010;10.366;2023-08-08T00:38:09;2.88;;;2.20;;
14789;SDS011;7486;51.010;10.366;2023-08-08T00:40:55;3.63;;;2.00;;
14789;SDS011;7486;51.010;10.366;2023-08-08T00:43:40;2.58;;;2.22;;
14789;SDS011;7486;51.010;10.366;2023-08-08T00:46:26;3.25;;;2.38;;
14789;SDS011;7486;51.010;10.366;2023-08-08T00:49:11;3.83;;;2.13;;
14789;SDS011;7486;51.010;10.366;2023-08-08T00:51:57;3.45;;;2.00;;
14789;SDS011;7486;51.010;10.366;2023-08-08T00:54:44;3.63;;;2.17;;
14789;SDS011;7486;51.010;10.366;2023-08-08T00:57:30;3.15;;;1.95;;
14789;SDS011;7486;51.010;10.366;2023-08-08T01:00:15;2.47;;;2.10;;
14789;SDS011;7486;51.010;10.366;2023-08-08T01:03:01;2.53;;;2.15;;
14789;SDS011;7486;51.010;10.366;2023-08-08T01:05:48;3.92;;;2.10;;
14789;SDS011;7486;51.010;10.366;2023-08-08T01:08:48;3.85;;;2.20;;
14789;SDS011;7486;51.010;10.366;2023-08-08T01:11:56;3.65;;;2.30;;
14789;SDS011;7486;51.010;10.366;2023-08-08T01:14:43;4.07;;;2.35;;
14789;SDS011;7486;51.010;10.366;2023-08-08T01:17:29;3.13;;;2.22;;
14789;SDS011;7486;51.010;10.366;2023-08-08T01:20:14;3.22;;;2.30;;
14789;SDS011;7486;51.010;10.366;2023-08-08T01:25:56;3.38;;;2.22;;
14789;SDS011;7486;51.010;10.366;2023-08-08T01:28:44;2.65;;;2.30;;
14789;SDS011;7486;51.010;10.366;2023-08-08T01:31:29;3.10;;;2.35;;
14789;SDS011;7486;51.010;10.366;2023-08-08T01:34:15;2.95;;;2.03;;
14789;SDS011;7486;51.010;10.366;2023-08-08T01:40:15;3.95;;;2.33;;
14789;SDS011;7486;51.010;10.366;2023-08-08T01:43:02;3.13;;;2.33;;
14789;SDS011;7486;51.010;10.366;2023-08-08T01:45:49;3.13;;;2.50;;
14789;SDS011;7486;51.010;10.366;2023-08-08T01:48:36;2.78;;;2.22;;
14789;SDS011;7486;51.010;10.366;2023-08-08T01:51:21;2.83;;;2.08;;
14789;SDS011;7486;51.010;10.366;2023-08-08T01:54:07;3.10;;;2.22;;
14789;SDS011;7486;51.010;10.366;2023-08-08T01:56:53;5.07;;;2.30;;
14789;SDS011;7486;51.010;10.366;2023-08-08T01:59:39;3.50;;;2.50;;
14789;SDS011;7486;51.010;10.366;2023-08-08T02:02:25;3.55;;;2.47;;
14789;SDS011;7486;51.010;10.366;2023-08-08T02:05:12;2.47;;;2.10;;
14789;SDS011;7486;51.010;10.366;2023-08-08T02:07:57;4.25;;;2.50;;
14789;SDS011;7486;51.010;10.366;2023-08-08T02:10:42;4.15;;;2.22;;
14789;SDS011;7486;51.010;10.366;2023-08-08T02:13:27;3.53;;;2.30;;
14789;SDS011;7486;51.010;10.366;2023-08-08T02:16:13;5.15;;;2.22;;
14789;SDS011;7486;51.010;10.366;2023-08-08T02:18:58;2.95;;;2.30;;
14789;SDS011;7486;51.010;10.366;2023-08-08T02:21:44;2.83;;;2.30;;
14789;SDS011;7486;51.010;10.366;2023-08-08T02:24:30;4.28;;;2.10;;
14789;SDS011;7486;51.010;10.366;2023-08-08T02:27:15;3.92;;;2.13;;
14789;SDS011;7486;51.010;10.366;2023-08-08T02:30:01;3.72;;;2.67;;
14789;SDS011;7486;51.010;10.366;2023-08-08T02:32:47;3.20;;;2.17;;
14789;SDS011;7486;51.010;10.366;2023-08-08T02:35:32;3.38;;;2.38;;
14789;SDS011;7486;51.010;10.366;2023-08-08T02:38:17;3.72;;;2.25;;
14789;SDS011;7486;51.010;10.366;2023-08-08T02:41:02;3.83;;;2.00;;
14789;SDS011;7486;51.010;10.366;2023-08-08T02:43:48;3.42;;;2.20;;
14789;SDS011;7486;51.010;10.366;2023-08-08T02:46:33;2.50;;;2.13;;
14789;SDS011;7486;51.010;10.366;2023-08-08T02:49:19;3.13;;;2.70;;
14789;SDS011;7486;51.010;10.366;2023-08-08T02:52:04;5.10;;;2.47;;
14789;SDS011;7486;51.010;10.366;2023-08-08T02:54:51;4.97;;;2.25;;
14789;SDS011;7486;51.010;10.366;2023-08-08T02:57:38;2.33;;;2.10;;
14789;SDS011;7486;51.010;10.366;2023-08-08T03:00:24;2.72;;;2.33;;
14789;SDS011;7486;51.010;10.366;2023-08-08T03:03:11;3.28;;;2.28;;
14789;SDS011;7486;51.010;10.366;2023-08-08T03:05:57;3.63;;;2.17;;
14789;SDS011;7486;51.010;10.366;2023-08-08T03:08:44;3.00;;;2.03;;
14789;SDS011;7486;51.010;10.366;2023-08-08T03:11:29;4.22;;;2.58;;
14789;SDS011;7486;51.010;10.366;2023-08-08T03:14:15;2.75;;;2.10;;
14789;SDS011;7486;51.010;10.366;2023-08-08T03:17:01;2.30;;;2.10;;
14789;SDS011;7486;51.010;10.366;2023-08-08T03:19:46;3.38;;;1.98;;
14789;SDS011;7486;51.010;10.366;2023-08-08T03:22:33;3.15;;;2.00;;
14789;SDS011;7486;51.010;10.366;2023-08-08T03:25:19;3.15;;;2.13;;
14789;SDS011;7486;51.010;10.366;2023-08-08T03:28:05;2.88;;;1.98;;
14789;SDS011;7486;51.010;10.366;2023-08-08T03:30:50;4.07;;;2.00;;
14789;SDS011;7486;51.010;10.366;2023-08-08T03:33:35;4.65;;;2.58;;
14789;SDS011;7486;51.010;10.366;2023-08-08T03:36:24;3.50;;;2.00;;
14789;SDS011;7486;51.010;10.366;2023-08-08T03:39:10;3.92;;;2.15;;
14789;SDS011;7486;51.010;10.366;2023-08-08T03:41:55;4.00;;;2.17;;
14789;SDS011;7486;51.010;10.366;2023-08-08T03:44:42;3.03;;;2.45;;
14789;SDS011;7486;51.010;10.366;2023-08-08T03:47:28;2.72;;;2.38;;
14789;SDS011;7486;51.010;10.366;2023-08-08T03:50:13;5.10;;;2.45;;
14789;SDS011;7486;51.010;10.366;2023-08-08T03:52:59;4.00;;;2.75;;
14789;SDS011;7486;51.010;10.366;2023-08-08T03:55:46;3.15;;;2.40;;
14789;SDS011;7486;51.010;10.366;2023-08-08T03:58:32;6.00;;;2.60;;
14789;SDS011;7486;51.010;10.366;2023-08-08T04:01:18;5.65;;;2.20;;
14789;SDS011;7486;51.010;10.366;2023-08-08T04:04:04;3.00;;;2.30;;
14789;SDS011;7486;51.010;10.366;2023-08-08T04:06:50;4.97;;;2.30;;
14789;SDS011;7486;51.010;10.366;2023-08-08T04:09:35;2.90;;;2.20;;
14789;SDS011;7486;51.010;10.366;2023-08-08T04:12:21;2.67;;;2.30;;
14789;SDS011;7486;51.010;10.366;2023-08-08T04:15:07;4.38;;;2.40;;
14789;SDS011;7486;51.010;10.366;2023-08-08T04:17:53;2.83;;;2.50;;
14789;SDS011;7486;51.010;10.366;2023-08-08T04:20:38;2.83;;;2.28;;
14789;SDS011;7486;51.010;10.366;2023-08-08T04:23:24;4.05;;;2.50;;
14789;SDS011;7486;51.010;10.366;2023-08-08T04:26:09;3.53;;;2.25;;
14789;SDS011;7486;51.010;10.366;2023-08-08T04:28:55;2.88;;;2.30;;
14789;SDS011;7486;51.010;10.366;2023-08-08T04:31:40;4.22;;;2.20;;
14789;SDS011;7486;51.010;10.366;2023-08-08T04:34:25;3.33;;;2.28;;
14789;SDS011;7486;51.010;10.366;2023-08-08T04:37:11;2.67;;;2.00;;
14789;SDS011;7486;51.010;10.366;2023-08-08T04:39:56;3.53;;;2.15;;
14789;SDS011;7486;51.010;10.366;2023-08-08T04:42:42;3.65;;;2.30;;
14789;SDS011;7486;51.010;10.366;2023-08-08T04:45:28;4.05;;;2.25;;
14789;SDS011;7486;51.010;10.366;2023-08-08T04:48:13;2.63;;;2.13;;
14789;SDS011;7486;51.010;10.366;2023-08-08T04:50:59;3.05;;;2.10;;
14789;SDS011;7486;51.010;10.366;2023-08-08T04:53:44;2.70;;;2.10;;
14789;SDS011;7486;51.010;10.366;2023-08-08T04:56:30;3.30;;;2.20;;
14789;SDS011;7486;51.010;10.366;2023-08-08T04:59:15;3.22;;;2.60;;
14789;SDS011;7486;51.010;10.366;2023-08-08T05:02:01;4.20;;;2.55;;
14789;SDS011;7486;51.010;10.366;2023-08-08T05:04:46;3.33;;;2.65;;
14789;SDS011;7486;51.010;10.366;2023-08-08T05:07:32;4.57;;;2.40;;
14789;SDS011;7486;51.010;10.366;2023-08-08T05:10:17;3.83;;;2.50;;
14789;SDS011;7486;51.010;10.366;2023-08-08T05:13:03;3.72;;;2.47;;
14789;SDS011;7486;51.010;10.366;2023-08-08T05:15:48;4.30;;;2.50;;
14789;SDS011;7486;51.010;10.366;2023-08-08T05:18:34;4.53;;;2.40;;
14789;SDS011;7486;51.010;10.366;2023-08-08T05:21:21;2.92;;;2.30;;
14789;SDS011;7486;51.010;10.366;2023-08-08T05:24:07;3.47;;;2.38;;
14789;SDS011;7486;51.010;10.366;2023-08-08T05:26:52;2.88;;;2.33;;
14789;SDS011;7486;51.010;10.366;2023-08-08T05:29:38;2.92;;;2.35;;
14789;SDS011;7486;51.010;10.366;2023-08-08T05:32:23;3.30;;;2.10;;
14789;SDS011;7486;51.010;10.366;2023-08-08T05:35:09;2.30;;;2.05;;
14789;SDS011;7486;51.010;10.366;2023-08-08T05:37:55;3.92;;;2.10;;
14789;SDS011;7486;51.010;10.366;2023-08-08T05:40:41;3.00;;;2.22;;
14789;SDS011;7486;51.010;10.366;2023-08-08T05:43:26;4.60;;;1.90;;
14789;SDS011;7486;51.010;10.366;2023-08-08T05:46:14;2.20;;;1.80;;
14789;SDS011;7486;51.010;10.366;2023-08-08T05:49:00;2.03;;;1.90;;
14789;SDS011;7486;51.010;10.366;2023-08-08T05:51:45;2.10;;;1.90;;
14789;SDS011;7486;51.010;10.366;2023-08-08T05:54:32;3.08;;;1.70;;
14789;SDS011;7486;51.010;10.366;2023-08-08T05:57:17;2.53;;;1.70;;
14789;SDS011;7486;51.010;10.366;2023-08-08T06:00:03;3.90;;;1.73;;
14789;SDS011;7486;51.010;10.366;2023-08-08T06:02:56;2.42;;;1.85;;
14789;SDS011;7486;51.010;10.366;2023-08-08T06:05:42;2.00;;;1.77;;
14789;SDS011;7486;51.010;10.366;2023-08-08T06:08:31;2.60;;;1.63;;
14789;SDS011;7486;51.010;10.366;2023-08-08T06:11:16;3.47;;;1.60;;
14789;SDS011;7486;51.010;10.366;2023-08-08T06:14:02;2.08;;;1.80;;
14789;SDS011;7486;51.010;10.366;2023-08-08T06:16:47;2.10;;;1.60;;
14789;SDS011;7486;51.010;10.366;2023-08-08T06:19:33;1.77;;;1.50;;
14789;SDS011;7486;51.010;10.366;2023-08-08T06:22:19;3.20;;;1.90;;
14789;SDS011;7486;51.010;10.366;2023-08-08T06:25:08;1.70;;;1.60;;
14789;SDS011;7486;51.010;10.366;2023-08-08T06:27:53;3.35;;;1.73;;
14789;SDS011;7486;51.010;10.366;2023-08-08T06:30:39;2.53;;;1.80;;
14789;SDS011;7486;51.010;10.366;2023-08-08T06:33:25;2.67;;;1.73;;
14789;SDS011;7486;51.010;10.366;2023-08-08T06:36:10;1.70;;;1.60;;
14789;SDS011;7486;51.010;10.366;2023-08-08T06:38:55;1.88;;;1.50;;
14789;SDS011;7486;51.010;10.366;2023-08-08T06:41:41;1.88;;;1.60;;
14789;SDS011;7486;51.010;10.366;2023-08-08T06:44:27;2.08;;;1.65;;
14789;SDS011;7486;51.010;10.366;2023-08-08T06:47:12;1.48;;;1.30;;
14789;SDS011;7486;51.010;10.366;2023-08-08T06:49:58;3.30;;;1.70;;
14789;SDS011;7486;51.010;10.366;2023-08-08T06:52:43;1.77;;;1.40;;
14789;SDS011;7486;51.010;10.366;2023-08-08T06:55:28;2.50;;;1.50;;
14789;SDS011;7486;51.010;10.366;2023-08-08T06:58:14;4.68;;;1.65;;
14789;SDS011;7486;51.010;10.366;2023-08-08T07:01:01;1.77;;;1.40;;
14789;SDS011;7486;51.010;10.366;2023-08-08T07:03:49;1.60;;;1.42;;
14789;SDS011;7486;51.010;10.366;2023-08-08T07:06:35;3.15;;;1.52;;
14789;SDS011;7486;51.010;10.366;2023-08-08T07:09:21;3.35;;;1.40;;
14789;SDS011;7486;51.010;10.366;2023-08-08T07:12:08;2.45;;;1.60;;
14789;SDS011;7486;51.010;10.366;2023-08-08T07:14:55;2.10;;;1.35;;
14789;SDS011;7486;51.010;10.366;2023-08-08T07:17:40;2.05;;;1.50;;
14789;SDS011;7486;51.010;10.366;2023-08-08T07:20:34;1.83;;;1.48;;
14789;SDS011;7486;51.010;10.366;2023-08-08T07:23:19;2.60;;;1.20;;
14789;SDS011;7486;51.010;10.366;2023-08-08T07:26:05;2.97;;;1.45;;
14789;SDS011;7486;51.010;10.366;2023-08-08T07:28:52;1.60;;;1.33;;
14789;SDS011;7486;51.010;10.366;2023-08-08T07:31:38;1.75;;;1.30;;
14789;SDS011;7486;51.010;10.366;2023-08-08T07:34:25;2.00;;;1.30;;
14789;SDS011;7486;51.010;10.366;2023-08-08T07:37:17;5.03;;;1.50;;
14789;SDS011;7486;51.010;10.366;2023-08-08T07:40:14;2.05;;;1.38;;
14789;SDS011;7486;51.010;10.366;2023-08-08T07:43:09;2.28;;;1.40;;
14789;SDS011;7486;51.010;10.366;2023-08-08T07:45:58;1.70;;;1.40;;
14789;SDS011;7486;51.010;10.366;2023-08-08T07:48:44;2.33;;;1.58;;
14789;SDS011;7486;51.010;10.366;2023-08-08T07:51:30;1.60;;;1.33;;
14789;SDS011;7486;51.010;10.366;2023-08-08T07:54:15;4.07;;;1.40;;
14789;SDS011;7486;51.010;10.366;2023-08-08T07:57:01;2.67;;;1.50;;
14789;SDS011;7486;51.010;10.366;2023-08-08T07:59:46;3.08;;;1.30;;
14789;SDS011;7486;51.010;10.366;2023-08-08T08:02:32;2.05;;;1.20;;
14789;SDS011;7486;51.010;10.366;2023-08-08T08:05:17;1.48;;;1.38;;
14789;SDS011;7486;51.010;10.366;2023-08-08T08:08:03;2.88;;;1.40;;
14789;SDS011;7486;51.010;10.366;2023-08-08T08:10:48;4.18;;;1.75;;
14789;SDS011;7486;51.010;10.366;2023-08-08T08:13:33;1.40;;;1.30;;
14789;SDS011;7486;51.010;10.366;2023-08-08T08:16:19;2.33;;;1.33;;
14789;SDS011;7486;51.010;10.366;2023-08-08T08:19:05;5.88;;;1.60;;
14789;SDS011;7486;51.010;10.366;2023-08-08T08:21:50;2.50;;;1.40;;
14789;SDS011;7486;51.010;10.366;2023-08-08T08:24:35;2.85;;;1.38;;
14789;SDS011;7486;51.010;10.366;2023-08-08T08:27:21;2.38;;;1.30;;
14789;SDS011;7486;51.010;10.366;2023-08-08T08:30:07;2.05;;;1.20;;
14789;SDS011;7486;51.010;10.366;2023-08-08T08:32:53;1.70;;;1.20;;
14789;SDS011;7486;51.010;10.366;2023-08-08T08:35:39;1.92;;;1.40;;
14789;SDS011;7486;51.010;10.366;2023-08-08T08:38:24;1.60;;;1.38;;
14789;SDS011;7486;51.010;10.366;2023-08-08T08:41:10;1.80;;;1.38;;
14789;SDS011;7486;51.010;10.366;2023-08-08T08:43:59;3.38;;;1.40;;
14789;SDS011;7486;51.010;10.366;2023-08-08T08:46:46;1.50;;;1.38;;
14789;SDS011;7486;51.010;10.366;2023-08-08T08:49:33;2.25;;;1.40;;
14789;SDS011;7486;51.010;10.366;2023-08-08T08:52:20;1.27;;;1.17;;
14789;SDS011;7486;51.010;10.366;2023-08-08T08:55:06;2.45;;;1.35;;
14789;SDS011;7486;51.010;10.366;2023-08-08T08:57:54;2.65;;;1.30;;
14789;SDS011;7486;51.010;10.366;2023-08-08T09:00:44;2.15;;;1.30;;
14789;SDS011;7486;51.010;10.366;2023-08-08T09:03:31;1.80;;;1.02;;
14789;SDS011;7486;51.010;10.366;2023-08-08T09:06:18;1.92;;;1.20;;
14789;SDS011;7486;51.010;10.366;2023-08-08T09:09:05;1.92;;;1.40;;
14789;SDS011;7486;51.010;10.366;2023-08-08T09:12:01;2.47;;;1.45;;
14789;SDS011;7486;51.010;10.366;2023-08-08T09:14:54;1.90;;;1.15;;
14789;SDS011;7486;51.010;10.366;2023-08-08T09:17:41;1.63;;;1.10;;
14789;SDS011;7486;51.010;10.366;2023-08-08T09:20:33;3.20;;;1.10;;
14789;SDS011;7486;51.010;10.366;2023-08-08T09:23:19;2.20;;;1.15;;
14789;SDS011;7486;51.010;10.366;2023-08-08T09:26:05;1.85;;;1.25;;
14789;SDS011;7486;51.010;10.366;2023-08-08T09:28:50;2.97;;;0.93;;
14789;SDS011;7486;51.010;10.366;2023-08-08T09:31:36;2.20;;;1.20;;
14789;SDS011;7486;51.010;10.366;2023-08-08T09:34:24;1.98;;;1.27;;
14789;SDS011;7486;51.010;10.366;2023-08-08T09:37:10;1.92;;;1.30;;
14789;SDS011;7486;51.010;10.366;2023-08-08T09:39:56;3.15;;;1.42;;
14789;SDS011;7486;51.010;10.366;2023-08-08T09:42:45;1.67;;;1.33;;
14789;SDS011;7486;51.010;10.366;2023-08-08T09:45:37;1.83;;;1.30;;
14789;SDS011;7486;51.010;10.366;2023-08-08T09:48:23;3.70;;;1.17;;
14789;SDS011;7486;51.010;10.366;2023-08-08T09:51:14;3.38;;;1.38;;
14789;SDS011;7486;51.010;10.366;2023-08-08T09:54:00;2.13;;;1.15;;
14789;SDS011;7486;51.010;10.366;2023-08-08T09:56:47;1.45;;;1.35;;
14789;SDS011;7486;51.010;10.366;2023-08-08T09:59:37;3.47;;;1.40;;
14789;SDS011;7486;51.010;10.366;2023-08-08T10:02:23;2.13;;;1.25;;
14789;SDS011;7486;51.010;10.366;2023-08-08T10:05:09;2.92;;;1.10;;
14789;SDS011;7486;51.010;10.366;2023-08-08T10:07:56;1.65;;;1.25;;
14789;SDS011;7486;51.010;10.366;2023-08-08T10:10:43;1.77;;;1.20;;
14789;SDS011;7486;51.010;10.366;2023-08-08T10:13:30;2.58;;;1.45;;
14789;SDS011;7486;51.010;10.366;2023-08-08T10:16:16;3.28;;;1.38;;
14789;SDS011;7486;51.010;10.366;2023-08-08T10:19:03;2.30;;;1.30;;
14789;SDS011;7486;51.010;10.366;2023-08-08T10:21:54;2.28;;;1.25;;
14789;SDS011;7486;51.010;10.366;2023-08-08T10:24:46;1.55;;;1.23;;
14789;SDS011;7486;51.010;10.366;2023-08-08T10:27:35;1.70;;;1.30;;
14789;SDS011;7486;51.010;10.366;2023-08-08T10:30:22;1.63;;;1.10;;
14789;SDS011;7486;51.010;10.366;2023-08-08T10:33:14;1.55;;;1.27;;
14789;SDS011;7486;51.010;10.366;2023-08-08T10:36:04;1.38;;;1.10;;
14789;SDS011;7486;51.010;10.366;2023-08-08T10:38:51;2.13;;;1.30;;
14789;SDS011;7486;51.010;10.366;2023-08-08T10:41:43;1.85;;;1.30;;
14789;SDS011;7486;51.010;10.366;2023-08-08T10:44:39;1.23;;;1.13;;
14789;SDS011;7486;51.010;10.366;2023-08-08T10:47:26;3.03;;;1.25;;
14789;SDS011;7486;51.010;10.366;2023-08-08T10:50:24;3.97;;;1.50;;
14789;SDS011;7486;51.010;10.366;2023-08-08T10:53:09;1.98;;;1.30;;
14789;SDS011;7486;51.010;10.366;2023-08-08T10:56:01;2.85;;;1.60;;
14789;SDS011;7486;51.010;10.366;2023-08-08T10:58:48;1.50;;;1.30;;
14789;SDS011;7486;51.010;10.366;2023-08-08T11:01:34;2.45;;;1.20;;
14789;SDS011;7486;51.010;10.366;2023-08-08T11:04:22;2.20;;;1.30;;
14789;SDS011;7486;51.010;10.366;2023-08-08T11:07:08;3.17;;;1.15;;
14789;SDS011;7486;51.010;10.366;2023-08-08T11:09:54;2.90;;;1.30;;
14789;SDS011;7486;51.010;10.366;2023-08-08T11:12:39;2.33;;;1.50;;
14789;SDS011;7486;51.010;10.366;2023-08-08T11:15:25;2.05;;;1.38;;
14789;SDS011;7486;51.010;10.366;2023-08-08T11:18:11;1.45;;;1.23;;
14789;SDS011;7486;51.010;10.366;2023-08-08T11:20:58;2.28;;;1.38;;
14789;SDS011;7486;51.010;10.366;2023-08-08T11:24:02;2.38;;;1.50;;
14789;SDS011;7486;51.010;10.366;2023-08-08T11:26:57;1.92;;;1.30;;
14789;SDS011;7486;51.010;10.366;2023-08-08T11:29:50;2.25;;;1.50;;
14789;SDS011;7486;51.010;10.366;2023-08-08T11:32:36;2.30;;;1.50;;
14789;SDS011;7486;51.010;10.366;2023-08-08T11:35:22;3.72;;;1.50;;
14789;SDS011;7486;51.010;10.366;2023-08-08T11:38:09;2.47;;;1.35;;
14789;SDS011;7486;51.010;10.366;2023-08-08T11:40:54;1.40;;;1.27;;
14789;SDS011;7486;51.010;10.366;2023-08-08T11:43:40;2.17;;;1.73;;
14789;SDS011;7486;51.010;10.366;2023-08-08T11:46:26;2.85;;;1.80;;
14789;SDS011;7486;51.010;10.366;2023-08-08T11:49:13;2.33;;;1.60;;
14789;SDS011;7486;51.010;10.366;2023-08-08T11:52:00;3.17;;;1.90;;
14789;SDS011;7486;51.010;10.366;2023-08-08T11:54:52;2.88;;;1.60;;
14789;SDS011;7486;51.010;10.366;2023-08-08T11:57:37;2.80;;;1.58;;
14789;SDS011;7486;51.010;10.366;2023-08-08T12:00:28;3.05;;;1.70;;
14789;SDS011;7486;51.010;10.366;2023-08-08T12:03:14;2.70;;;1.63;;
14789;SDS011;7486;51.010;10.366;2023-08-08T12:06:00;2.28;;;1.55;;
14789;SDS011;7486;51.010;10.366;2023-08-08T12:08:45;3.25;;;1.90;;
14789;SDS011;7486;51.010;10.366;2023-08-08T12:11:35;2.58;;;1.80;;
14789;SDS011;7486;51.010;10.366;2023-08-08T12:14:20;2.72;;;1.90;;
14789;SDS011;7486;51.010;10.366;2023-08-08T12:17:06;2.28;;;1.88;;
14789;SDS011;7486;51.010;10.366;2023-08-08T12:19:51;2.80;;;1.88;;
14789;SDS011;7486;51.010;10.366;2023-08-08T12:22:37;3.08;;;1.85;;
14789;SDS011;7486;51.010;10.366;2023-08-08T12:25:22;2.55;;;2.03;;
14789;SDS011;7486;51.010;10.366;2023-08-08T12:28:08;3.75;;;2.30;;
14789;SDS011;7486;51.010;10.366;2023-08-08T12:30:54;2.75;;;1.85;;
14789;SDS011;7486;51.010;10.366;2023-08-08T12:33:40;2.55;;;1.85;;
14789;SDS011;7486;51.010;10.366;2023-08-08T12:36:25;2.40;;;1.90;;
14789;SDS011;7486;51.010;10.366;2023-08-08T12:39:10;2.03;;;1.77;;
14789;SDS011;7486;51.010;10.366;2023-08-08T12:41:56;3.05;;;1.70;;
14789;SDS011;7486;51.010;10.366;2023-08-08T12:44:42;2.95;;;2.10;;
14789;SDS011;7486;51.010;10.366;2023-08-08T12:47:27;3.53;;;2.20;;
14789;SDS011;7486;51.010;10.366;2023-08-08T12:50:13;4.38;;;2.25;;
14789;SDS011;7486;51.010;10.366;2023-08-08T12:52:58;4.15;;;2.40;;
14789;SDS011;7486;51.010;10.366;2023-08-08T12:55:44;2.20;;;2.00;;
14789;SDS011;7486;51.010;10.366;2023-08-08T12:58:29;3.30;;;2.28;;
14789;SDS011;7486;51.010;10.366;2023-08-08T13:01:15;3.30;;;2.47;;
14789;SDS011;7486;51.010;10.366;2023-08-08T13:04:01;2.97;;;2.42;;
14789;SDS011;7486;51.010;10.366;2023-08-08T13:07:03;2.90;;;2.60;;
14789;SDS011;7486;51.010;10.366;2023-08-08T13:09:49;3.58;;;2.60;;
14789;SDS011;7486;51.010;10.366;2023-08-08T13:12:34;3.53;;;2.40;;
14789;SDS011;7486;51.010;10.366;2023-08-08T13:15:19;3.42;;;2.30;;
14789;SDS011;7486;51.010;10.366;2023-08-08T13:18:05;3.53;;;2.33;;
14789;SDS011;7486;51.010;10.366;2023-08-08T13:20:51;2.47;;;2.20;;
14789;SDS011;7486;51.010;10.366;2023-08-08T13:23:36;3.97;;;2.20;;
14789;SDS011;7486;51.010;10.366;2023-08-08T13:26:22;2.15;;;1.95;;
14789;SDS011;7486;51.010;10.366;2023-08-08T13:29:08;3.05;;;2.10;;
14789;SDS011;7486;51.010;10.366;2023-08-08T13:31:54;2.13;;;1.83;;
14789;SDS011;7486;51.010;10.366;2023-08-08T13:34:39;3.60;;;2.10;;
14789;SDS011;7486;51.010;10.366;2023-08-08T13:37:25;3.08;;;2.10;;
14789;SDS011;7486;51.010;10.366;2023-08-08T13:40:10;2.40;;;2.10;;
14789;SDS011;7486;51.010;10.366;2023-08-08T13:42:56;2.20;;;2.00;;
14789;SDS011;7486;51.010;10.366;2023-08-08T13:45:42;4.10;;;2.08;;
14789;SDS011;7486;51.010;10.366;2023-08-08T13:48:28;3.17;;;2.10;;
14789;SDS011;7486;51.010;10.366;2023-08-08T13:51:13;3.85;;;1.98;;
14789;SDS011;7486;51.010;10.366;2023-08-08T13:53:59;4.00;;;2.30;;
14789;SDS011;7486;51.010;10.366;2023-08-08T13:56:44;3.03;;;1.92;;
14789;SDS011;7486;51.010;10.366;2023-08-08T13:59:30;3.75;;;2.15;;
14789;SDS011;7486;51.010;10.366;2023-08-08T14:02:16;4.18;;;2.13;;
14789;SDS011;7486;51.010;10.366;2023-08-08T14:05:02;3.63;;;2.05;;
14789;SDS011;7486;51.010;10.366;2023-08-08T14:07:47;3.60;;;1.80;;
14789;SDS011;7486;51.010;10.366;2023-08-08T14:10:33;3.00;;;1.88;;
14789;SDS011;7486;51.010;10.366;2023-08-08T14:13:18;1.80;;;1.70;;
14789;SDS011;7486;51.010;10.366;2023-08-08T14:16:04;2.38;;;1.70;;
14789;SDS011;7486;51.010;10.366;2023-08-08T14:18:51;2.03;;;1.70;;
14789;SDS011;7486;51.010;10.366;2023-08-08T14:21:38;2.33;;;1.90;;
14789;SDS011;7486;51.010;10.366;2023-08-08T14:24:24;4.90;;;2.10;;
14789;SDS011;7486;51.010;10.366;2023-08-08T14:27:09;4.38;;;1.95;;
14789;SDS011;7486;51.010;10.366;2023-08-08T14:29:55;2.60;;;2.10;;
14789;SDS011;7486;51.010;10.366;2023-08-08T14:32:41;3.17;;;2.10;;
14789;SDS011;7486;51.010;10.366;2023-08-08T14:35:28;3.25;;;2.03;;
14789;SDS011;7486;51.010;10.366;2023-08-08T14:38:13;3.13;;;2.05;;
14789;SDS011;7486;51.010;10.366;2023-08-08T14:40:59;3.00;;;2.08;;
14789;SDS011;7486;51.010;10.366;2023-08-08T14:43:44;2.65;;;2.00;;
14789;SDS011;7486;51.010;10.366;2023-08-08T14:46:30;2.35;;;1.85;;
14789;SDS011;7486;51.010;10.366;2023-08-08T14:49:16;3.15;;;2.00;;
14789;SDS011;7486;51.010;10.366;2023-08-08T14:52:02;3.33;;;2.22;;
14789;SDS011;7486;51.010;10.366;2023-08-08T14:54:48;3.55;;;2.10;;
14789;SDS011;7486;51.010;10.366;2023-08-08T14:57:34;2.60;;;1.95;;
14789;SDS011;7486;51.010;10.366;2023-08-08T15:00:19;3.58;;;2.25;;
14789;SDS011;7486;51.010;10.366;2023-08-08T15:03:05;3.70;;;1.80;;
14789;SDS011;7486;51.010;10.366;2023-08-08T15:05:50;3.38;;;2.00;;
14789;SDS011;7486;51.010;10.366;2023-08-08T15:08:36;2.63;;;2.00;;
14789;SDS011;7486;51.010;10.366;2023-08-08T15:11:21;3.38;;;2.20;;
14789;SDS011;7486;51.010;10.366;2023-08-08T15:14:07;2.83;;;2.10;;
14789;SDS011;7486;51.010;10.366;2023-08-08T15:16:52;2.63;;;2.00;;
14789;SDS011;7486;51.010;10.366;2023-08-08T15:19:38;2.85;;;1.92;;
14789;SDS011;7486;51.010;10.366;2023-08-08T15:22:24;2.13;;;1.92;;
14789;SDS011;7486;51.010;10.366;2023-08-08T15:25:09;3.50;;;2.00;;
14789;SDS011;7486;51.010;10.366;2023-08-08T15:27:55;4.13;;;2.05;;
14789;SDS011;7486;51.010;10.366;2023-08-08T15:30:41;2.20;;;1.95;;
14789;SDS011;7486;51.010;10.366;2023-08-08T15:33:27;3.63;;;1.90;;
14789;SDS011;7486;51.010;10.366;2023-08-08T15:36:13;2.85;;;2.00;;
14789;SDS011;7486;51.010;10.366;2023-08-08T15:39:00;3.63;;;2.17;;
14789;SDS011;7486;51.010;10.366;2023-08-08T15:41:46;4.05;;;2.00;;
14789;SDS011;7486;51.010;10.366;2023-08-08T15:44:32;3.65;;;2.03;;
14789;SDS011;7486;51.010;10.366;2023-08-08T15:47:17;3.85;;;2.25;;
14789;SDS011;7486;51.010;10.366;2023-08-08T15:50:03;2.50;;;1.90;;
14789;SDS011;7486;51.010;10.366;2023-08-08T15:52:49;3.38;;;1.88;;
14789;SDS011;7486;51.010;10.366;2023-08-08T15:55:34;2.90;;;2.00;;
14789;SDS011;7486;51.010;10.366;2023-08-08T15:58:21;4.03;;;1.85;;
14789;SDS011;7486;51.010;10.366;2023-08-08T16:01:06;3.63;;;2.00;;
14789;SDS011;7486;51.010;10.366;2023-08-08T16:03:52;2.42;;;2.08;;
14789;SDS011;7486;51.010;10.366;2023-08-08T16:06:38;3.20;;;2.40;;
14789;SDS011;7486;51.010;10.366;2023-08-08T16:09:24;2.10;;;1.90;;
14789;SDS011;7486;51.010;10.366;2023-08-08T16:12:10;3.92;;;2.00;;
14789;SDS011;7486;51.010;10.366;2023-08-08T16:14:56;2.97;;;2.00;;
14789;SDS011;7486;51.010;10.366;2023-08-08T16:17:41;3.75;;;1.95;;
14789;SDS011;7486;51.010;10.366;2023-08-08T16:20:27;4.15;;;2.22;;
14789;SDS011;7486;51.010;10.366;2023-08-08T16:23:13;3.72;;;2.10;;
14789;SDS011;7486;51.010;10.366;2023-08-08T16:25:58;3.13;;;1.70;;
14789;SDS011;7486;51.010;10.366;2023-08-08T16:28:44;2.13;;;1.88;;
14789;SDS011;7486;51.010;10.366;2023-08-08T16:31:29;2.80;;;2.00;;
14789;SDS011;7486;51.010;10.366;2023-08-08T16:34:17;3.45;;;2.20;;
14789;SDS011;7486;51.010;10.366;2023-08-08T16:37:02;4.25;;;2.30;;
14789;SDS011;7486;51.010;10.366;2023-08-08T16:39:47;6.25;;;2.13;;
14789;SDS011;7486;51.010;10.366;2023-08-08T16:42:33;3.08;;;1.98;;
14789;SDS011;7486;51.010;10.366;2023-08-08T16:45:18;2.00;;;1.80;;
14789;SDS011;7486;51.010;10.366;2023-08-08T16:48:03;30.23;;;3.50;;
14789;SDS011;7486;51.010;10.366;2023-08-08T16:50:49;91.45;;;7.18;;